Time;durP1;ratioP1;P1;durP2;ratioP2;P2;SDS_P1;SDS_P2;PMS_P1;PMS_P2;Temp;Humidity;BMP_temperature;BMP_pressure;BME280_temperature;BME280_humidity;BME280_pressure;Samples;Min_cycle;Max_cycle;Signal;HPM_P1;HPM_P2
2023/08/22 00:01:38;;;;;;;11.00;2.85;;;32.00;22.20;;;;;;20837407;28;20081;-56
2023/08/22 00:11:38;;;;;;;16.58;2.75;;;31.90;22.30;;;;;;20835265;28;20058;-56
2023/08/22 00:21:39;;;;;;;14.93;3.35;;;31.80;22.40;;;;;;20835720;28;20044;-57
2023/08/22 00:31:40;;;;;;;9.63;2.50;;;31.70;22.50;;;;;;20833808;28;20065;-57
2023/08/22 00:41:41;;;;;;;13.48;3.38;;;31.60;23.20;;;;;;20833930;28;20041;-57
2023/08/22 00:51:43;;;;;;;8.57;2.58;;;31.30;23.50;;;;;;20832653;28;20060;-56
2023/08/22 01:01:44;;;;;;;10.25;2.63;;;31.10;24.10;;;;;;20832761;28;20073;-56
2023/08/22 01:11:49;;;;;;;10.50;2.97;;;31.00;24.50;;;;;;20832337;28;20144;-56
2023/08/22 01:21:51;;;;;;;10.07;3.13;;;30.90;25.40;;;;;;20830316;28;20133;-56
2023/08/22 01:32:04;;;;;;;9.25;3.42;;;30.80;25.70;;;;;;20829705;28;20112;-56
2023/08/22 01:42:06;;;;;;;10.65;4.10;;;30.60;26.60;;;;;;20830907;28;20367;-56
2023/08/22 01:52:07;;;;;;;6.40;3.00;;;30.60;26.70;;;;;;20830529;28;20125;-56
2023/08/22 02:02:08;;;;;;;11.70;3.00;;;30.50;27.10;;;;;;20836450;28;20116;-55
2023/08/22 02:12:08;;;;;;;10.40;3.15;;;30.30;27.10;;;;;;20846043;28;20053;-56
2023/08/22 02:22:09;;;;;;;13.77;3.30;;;30.20;27.60;;;;;;20845732;28;20056;-56
2023/08/22 02:32:10;;;;;;;11.23;3.20;;;30.10;27.60;;;;;;20843727;28;20060;-56
2023/08/22 02:42:10;;;;;;;10.95;3.47;;;30.00;27.90;;;;;;20843927;28;20081;-57
2023/08/22 02:52:11;;;;;;;14.80;3.70;;;30.00;28.30;;;;;;20842973;28;20112;-56
2023/08/22 03:02:13;;;;;;;12.57;3.03;;;29.80;28.50;;;;;;20842215;28;20072;-56
2023/08/22 03:12:14;;;;;;;11.80;3.83;;;29.80;27.80;;;;;;20840618;28;20045;-56
2023/08/22 03:22:16;;;;;;;15.32;4.00;;;29.90;27.60;;;;;;20840718;28;20045;-56
2023/08/22 03:32:17;;;;;;;12.55;3.33;;;29.90;28.20;;;;;;20839505;28;20057;-55
2023/08/22 03:42:18;;;;;;;12.65;4.05;;;29.60;30.20;;;;;;20839350;28;20055;-55
2023/08/22 03:52:19;;;;;;;8.18;3.40;;;29.30;31.00;;;;;;20838329;28;20055;-56
2023/08/22 04:02:19;;;;;;;9.65;2.97;;;28.90;30.80;;;;;;20836121;28;20125;-55
2023/08/22 04:12:20;;;;;;;9.13;3.42;;;28.60;31.10;;;;;;20836858;28;20487;-56
2023/08/22 04:22:21;;;;;;;12.48;3.45;;;28.40;31.10;;;;;;20834028;28;20095;-56
2023/08/22 04:32:22;;;;;;;11.55;3.40;;;28.20;31.20;;;;;;20833619;28;20450;-57
2023/08/22 04:42:23;;;;;;;12.43;3.35;;;28.10;31.30;;;;;;20834149;28;20461;-56
2023/08/22 04:52:24;;;;;;;10.68;3.42;;;28.20;31.30;;;;;;20833570;28;20096;-56
2023/08/22 05:02:26;;;;;;;12.77;3.33;;;28.10;31.70;;;;;;20832892;28;20080;-56
2023/08/22 05:12:26;;;;;;;14.27;3.17;;;27.80;31.50;;;;;;20832074;28;20084;-56
2023/08/22 05:22:27;;;;;;;;;;;27.50;31.90;;;;;;20831410;28;20041;-55
2023/08/22 05:32:28;;;;;;;8.30;2.85;;;27.40;32.00;;;;;;20829247;28;19921;-55
2023/08/22 05:42:29;;;;;;;9.70;3.27;;;27.20;32.00;;;;;;20829775;28;20048;-55
2023/08/22 05:52:30;;;;;;;13.60;3.20;;;27.10;32.10;;;;;;20827816;28;20053;-56
2023/08/22 06:02:31;;;;;;;11.20;3.78;;;27.10;32.60;;;;;;20828881;28;20042;-57
2023/08/22 06:12:31;;;;;;;11.47;3.67;;;26.90;32.80;;;;;;20828299;28;20045;-56
2023/08/22 06:22:32;;;;;;;14.17;4.27;;;26.90;32.60;;;;;;20828428;28;20045;-57
2023/08/22 06:32:33;;;;;;;15.27;3.73;;;26.80;32.80;;;;;;20827756;28;20108;-57
2023/08/22 06:42:34;;;;;;;12.67;3.33;;;26.70;33.60;;;;;;20826691;28;20088;-57
2023/08/22 06:52:34;;;;;;;15.37;4.23;;;26.80;34.00;;;;;;20839628;28;20520;-55
2023/08/22 07:02:36;;;;;;;18.57;4.43;;;27.00;33.80;;;;;;20840460;28;20080;-56
2023/08/22 07:12:37;;;;;;;13.20;4.65;;;27.30;33.20;;;;;;20840856;28;20053;-56
2023/08/22 07:22:37;;;;;;;13.65;4.03;;;27.60;32.60;;;;;;20840094;28;20048;-56
2023/08/22 07:32:38;;;;;;;;;;;28.20;32.40;;;;;;20840776;28;20154;-55
2023/08/22 07:42:39;;;;;;;20.23;4.30;;;28.70;32.00;;;;;;20838757;28;20030;-57
2023/08/22 07:52:40;;;;;;;18.60;3.97;;;29.10;31.60;;;;;;20838361;28;20053;-56
2023/08/22 08:02:41;;;;;;;12.18;3.65;;;29.70;30.80;;;;;;20835914;28;20088;-56
2023/08/22 08:12:41;;;;;;;14.27;3.55;;;30.10;30.10;;;;;;20836837;28;20049;-57
2023/08/22 08:22:42;;;;;;;10.82;3.88;;;30.50;29.60;;;;;;20834634;28;20049;-56
2023/08/22 08:32:43;;;;;;;12.20;3.75;;;30.90;28.00;;;;;;20833611;28;20562;-56
2023/08/22 08:42:45;;;;;;;10.15;3.67;;;31.10;27.10;;;;;;20833914;28;20057;-56
2023/08/22 08:52:47;;;;;;;12.00;3.88;;;31.30;26.50;;;;;;20833946;28;20042;-57
2023/08/22 09:02:48;;;;;;;12.50;3.25;;;31.60;26.30;;;;;;20832964;28;20090;-56
2023/08/22 09:12:49;;;;;;;7.47;3.35;;;31.90;26.50;;;;;;20831609;28;20056;-57
2023/08/22 09:22:50;;;;;;;13.05;3.65;;;32.10;25.90;;;;;;20831164;28;20438;-56
2023/08/22 09:32:59;;;;;;;8.45;2.97;;;32.30;25.90;;;;;;20830109;28;20133;-56
2023/08/22 09:43:02;;;;;;;6.67;2.50;;;32.60;24.90;;;;;;20830423;28;20092;-57
2023/08/22 09:53:03;;;;;;;10.27;3.22;;;32.90;24.60;;;;;;20828751;28;20061;-59
2023/08/22 10:03:06;;;;;;;9.77;3.00;;;33.10;26.10;;;;;;20829698;28;20041;-57
2023/08/22 10:13:07;;;;;;;9.98;2.97;;;33.20;24.70;;;;;;20827527;28;20085;-56
2023/08/22 10:23:09;;;;;;;9.38;2.60;;;33.20;23.70;;;;;;20836699;28;20042;-56
2023/08/22 10:33:09;;;;;;;6.68;2.75;;;33.30;23.20;;;;;;20843243;28;20054;-57
2023/08/22 10:43:12;;;;;;;10.52;3.17;;;33.50;25.10;;;;;;20843010;28;20102;-58
2023/08/22 10:53:24;;;;;;;13.20;3.15;;;33.60;24.10;;;;;;20842505;28;20049;-57
2023/08/22 11:03:26;;;;;;;9.52;3.13;;;33.70;23.60;;;;;;20840780;28;20087;-56
2023/08/22 11:13:37;;;;;;;11.73;3.33;;;33.90;22.70;;;;;;20840702;28;20458;-57
2023/08/22 11:23:40;;;;;;;13.05;3.10;;;34.00;22.70;;;;;;20840641;28;20402;-57
2023/08/22 11:33:46;;;;;;;9.15;2.50;;;34.20;22.70;;;;;;20839419;28;20128;-58
2023/08/22 11:43:52;;;;;;;15.70;2.92;;;34.60;22.30;;;;;;20839426;28;20187;-56
2023/08/22 11:53:52;;;;;;;8.43;3.53;;;34.90;22.60;;;;;;20838679;28;20041;-56
2023/08/22 12:03:57;;;;;;;9.10;3.00;;;35.10;22.20;;;;;;20836501;28;20052;-56
2023/08/22 12:13:57;;;;;;;11.80;3.42;;;35.50;22.00;;;;;;20836769;28;20059;-56
2023/08/22 12:23:58;;;;;;;11.45;3.15;;;35.60;22.00;;;;;;20836029;28;20077;-57
2023/08/22 12:34:00;;;;;;;7.70;3.15;;;35.60;22.00;;;;;;20834401;28;20081;-55
2023/08/22 12:44:01;;;;;;;8.32;3.83;;;36.10;22.00;;;;;;20833651;28;20120;-58
2023/08/22 12:54:02;;;;;;;7.60;2.70;;;36.10;21.80;;;;;;20833693;28;20069;-56
2023/08/22 13:04:12;;;;;;;7.78;2.50;;;36.20;21.50;;;;;;20832784;28;20486;-55
2023/08/22 13:14:13;;;;;;;7.95;2.45;;;36.50;20.80;;;;;;20832693;28;20083;-56
2023/08/22 13:24:14;;;;;;;8.35;2.60;;;36.60;20.50;;;;;;20831775;28;20045;-56
2023/08/22 13:34:14;;;;;;;6.50;2.80;;;36.60;20.80;;;;;;20830606;28;20053;-57
2023/08/22 13:44:15;;;;;;;5.17;2.63;;;37.00;20.90;;;;;;20829663;28;20049;-56
2023/08/22 13:54:18;;;;;;;7.13;3.03;;;37.20;19.60;;;;;;20831630;28;20293;-56
2023/08/22 14:04:20;;;;;;;10.00;2.58;;;37.30;20.00;;;;;;20846764;28;20045;-58
2023/08/22 14:14:21;;;;;;;7.13;2.92;;;37.30;19.90;;;;;;20846583;28;20049;-56
2023/08/22 14:24:22;;;;;;;4.70;2.60;;;37.40;20.00;;;;;;20845138;28;20144;-58
2023/08/22 14:34:24;;;;;;;7.20;2.58;;;37.20;20.10;;;;;;20842912;28;20052;-57
2023/08/22 14:44:26;;;;;;;7.47;2.92;;;37.20;19.80;;;;;;20843436;28;20068;-56
2023/08/22 14:54:26;;;;;;;4.28;2.60;;;37.50;19.40;;;;;;20843231;28;20522;-56
2023/08/22 15:04:27;;;;;;;7.55;2.80;;;37.50;19.00;;;;;;20842394;28;20108;-57
2023/08/22 15:14:28;;;;;;;9.38;2.90;;;37.90;18.70;;;;;;20840204;28;20056;-57
2023/08/22 15:24:29;;;;;;;7.38;2.30;;;37.60;19.20;;;;;;20840405;28;20049;-58
2023/08/22 15:34:29;;;;;;;6.30;2.90;;;37.60;19.20;;;;;;20838451;28;20411;-56
2023/08/22 15:44:30;;;;;;;6.85;2.70;;;37.50;19.60;;;;;;20839124;28;20103;-56
2023/08/22 15:54:31;;;;;;;6.53;2.53;;;37.70;19.00;;;;;;20838636;28;20060;-56
2023/08/22 16:04:32;;;;;;;6.30;2.83;;;37.80;18.90;;;;;;20837954;28;20041;-56
2023/08/22 16:14:32;;;;;;;7.85;2.60;;;37.70;19.20;;;;;;20836672;28;20291;-57
2023/08/22 16:24:34;;;;;;;7.10;2.67;;;37.70;19.20;;;;;;20836183;28;20072;-56
2023/08/22 16:34:35;;;;;;;7.72;2.75;;;37.60;19.50;;;;;;20834065;28;20644;-56
2023/08/22 16:44:35;;;;;;;7.65;2.50;;;37.60;19.20;;;;;;20834518;28;20041;-56
2023/08/22 16:54:36;;;;;;;8.82;3.03;;;37.60;19.40;;;;;;20833867;28;20057;-57
2023/08/22 17:04:37;;;;;;;15.32;7.80;;;37.60;19.60;;;;;;20832044;28;20041;-56
2023/08/22 17:14:37;;;;;;;5.97;2.92;;;37.80;19.60;;;;;;20831569;28;20499;-56
2023/08/22 17:24:38;;;;;;;5.40;2.80;;;37.60;19.90;;;;;;20830488;28;20084;-57
2023/08/22 17:34:39;;;;;;;5.50;2.45;;;37.50;19.80;;;;;;20829799;28;20111;-56
2023/08/22 17:44:40;;;;;;;7.15;3.13;;;37.30;20.10;;;;;;20830858;28;20095;-57
2023/08/22 17:54:41;;;;;;;6.18;3.17;;;37.40;20.00;;;;;;20830489;28;20049;-56
2023/08/22 18:04:41;;;;;;;12.27;3.55;;;37.30;20.20;;;;;;20830299;28;20094;-56
2023/08/22 18:14:42;;;;;;;7.68;3.80;;;37.20;20.40;;;;;;20828634;28;20068;-57
2023/08/22 18:24:43;;;;;;;6.22;3.45;;;37.10;20.40;;;;;;20829643;28;20048;-57
2023/08/22 18:34:44;;;;;;;10.80;2.97;;;36.90;20.70;;;;;;20830148;28;20503;-56
2023/08/22 18:44:47;;;;;;;8.20;3.47;;;36.60;21.00;;;;;;20834138;28;20091;-58
2023/08/22 18:54:48;;;;;;;11.68;4.70;;;36.40;21.50;;;;;;20843634;28;20045;-56
2023/08/22 19:04:49;;;;;;;8.13;4.47;;;36.20;22.20;;;;;;20841840;28;20045;-56
2023/08/22 19:14:50;;;;;;;8.95;3.58;;;36.00;22.40;;;;;;20842170;28;20124;-55
2023/08/22 19:24:50;;;;;;;7.82;3.50;;;35.80;22.80;;;;;;20841370;28;20400;-56
2023/08/22 19:34:51;;;;;;;8.43;4.13;;;35.60;22.90;;;;;;20839874;28;20053;-56
2023/08/22 19:44:53;;;;;;;8.43;3.28;;;35.60;22.80;;;;;;20838136;28;20060;-57
2023/08/22 19:54:54;;;;;;;6.35;3.60;;;35.40;22.80;;;;;;20838104;28;20068;-56
2023/08/22 20:04:55;;;;;;;9.02;3.60;;;35.20;23.00;;;;;;20838232;28;20363;-57
2023/08/22 20:14:56;;;;;;;11.27;4.22;;;35.10;23.20;;;;;;20837633;28;20128;-57
2023/08/22 20:24:57;;;;;;;12.40;4.50;;;35.00;23.40;;;;;;20835164;28;20046;-56
2023/08/22 20:34:57;;;;;;;8.40;3.55;;;34.80;23.80;;;;;;20834782;28;20053;-57
2023/08/22 20:44:58;;;;;;;6.55;3.90;;;34.70;23.80;;;;;;20835089;28;20438;-57
2023/08/22 20:54:59;;;;;;;10.63;3.60;;;34.60;24.10;;;;;;20833277;28;20096;-57
2023/08/22 21:05:00;;;;;;;8.30;3.33;;;34.50;24.20;;;;;;20832555;28;20041;-57
2023/08/22 21:15:04;;;;;;;11.35;4.72;;;34.30;24.40;;;;;;20832890;28;20049;-57
2023/08/22 21:25:06;;;;;;;8.50;3.35;;;34.20;24.50;;;;;;20832078;28;20103;-56
2023/08/22 21:35:07;;;;;;;8.23;5.10;;;34.00;24.70;;;;;;20830597;28;20064;-58
2023/08/22 21:45:14;;;;;;;9.60;3.50;;;33.80;24.90;;;;;;20831652;28;20486;-57
2023/08/22 21:55:15;;;;;;;10.50;3.30;;;33.60;25.00;;;;;;20830968;28;20056;-56
2023/08/22 22:05:16;;;;;;;7.35;3.42;;;33.30;25.30;;;;;;20830412;28;20037;-57
2023/08/22 22:15:17;;;;;;;7.45;3.00;;;33.20;25.40;;;;;;20831410;28;20048;-58
2023/08/22 22:25:18;;;;;;;8.25;3.08;;;33.10;25.50;;;;;;20844680;28;20042;-56
2023/08/22 22:35:18;;;;;;;7.75;2.78;;;32.90;25.70;;;;;;20843552;28;20507;-57
2023/08/22 22:45:19;;;;;;;7.15;2.88;;;32.80;25.70;;;;;;20844574;28;20120;-57
2023/08/22 22:55:20;;;;;;;5.05;2.67;;;32.60;25.90;;;;;;20842592;28;20072;-57
2023/08/22 23:05:20;;;;;;;7.00;2.75;;;32.50;26.10;;;;;;20843017;28;20037;-56
2023/08/22 23:15:21;;;;;;;10.88;3.60;;;32.30;26.20;;;;;;20841389;28;20053;-57
2023/08/22 23:25:22;;;;;;;9.63;2.97;;;32.20;26.40;;;;;;20841614;28;20075;-57
2023/08/22 23:35:23;;;;;;;14.45;3.38;;;32.10;26.70;;;;;;20838426;28;20126;-56
2023/08/22 23:45:25;;;;;;;15.95;3.63;;;32.10;26.90;;;;;;20839886;28;20048;-56
2023/08/22 23:55:26;;;;;;;9.45;3.13;;;31.90;27.20;;;;;;20839163;28;20514;-57
